Portada
METAR-TAF:

METAR-TAF

Aeroports :

Aeroport Internacional de Bahrain

Bahrain, Bahrain

latitud: 26-16N, longitud: 050-39E, altitud: 2 m

Observació

L'informe es va fer fa 39 minuts, a les 05:30 UTC
Vent 12 kt del Nord-Oest
Temperatura 23°C
Humitat 78%
Pressió 1019 hPa
Visibilitat 10 km o més
Escasses núvols a una alçada de 3000 ft

METAR: OBBI 200530Z 32012KT 9999 FEW030 23/19 Q1019 NOSIG

Hora: 09:09 (06:09 UTC)

Pronòstic

L'informe es va fer fa 1 hora i 9 minuts, a les 05:00 UTC
Pronòstic vàlid del 20 a les 06 UTC al 21 a les 12 UTC
Vent 15 kt del Nord/Nord-Oest
Visibilitat 10 km o més
Núvols disperses a una alçada de 3000 ft
Probabilitat 30% :
Temporalment
l' 20 a les 06 UTC al 20 a les 12 UTC
Vent 15 kt del Nord/Nord-Oest amb ràfegues de 30 kt
Núvols disperses a una alçada de 2500 ft
Cel ennuvolat a una alçada de 8000 ft
pluja

TAF: OBBI 200500Z 2006/2112 33015KT 9999 SCT030 PROB30 TEMPO 2006/2012 33015G30KT RA SCT025 BKN080

Observacions i pronòstics meteorològics de més de 4000 aeroports (METAR i TAF).

Les estacions disponibles són els punts grocs i vermells al mapa.

Posi el ratolí al punt desitjat per veure el nom de l'estació.

Feu clic per veure les observacions i els pronòstics meteorològics.

Per canviar el mapa: feu clic els botons verds amb una creu de color negre per apropar; al botó verd amb un guió per allunyar la imatge; o en les fletxes verdes per a mapes adjacents.


METAR-TAF: